Time;durP1;ratioP1;P1;durP2;ratioP2;P2;SDS_P1;SDS_P2;PMS_P1;PMS_P2;Temp;Humidity;BMP_temperature;BMP_pressure;BME280_temperature;BME280_humidity;BME280_pressure;Samples;Min_cycle;Max_cycle;Signal;HPM_P1;HPM_P2
2023/07/17 00:01:49;;;;;;;12.13;3.00;;;16.80;99.90;;;;;;4986367;28;20457;-88
2023/07/17 00:04:14;;;;;;;7.78;2.95;;;16.80;99.90;;;;;;4961567;28;20115;-87
2023/07/17 00:06:41;;;;;;;9.55;3.00;;;16.80;99.90;;;;;;4980700;28;20050;-88
2023/07/17 00:09:07;;;;;;;6.65;3.03;;;17.50;99.90;;;;;;5026543;28;20039;-87
2023/07/17 00:11:34;;;;;;;9.43;2.40;;;16.90;99.90;;;;;;4974713;28;20039;-87
2023/07/17 00:14:00;;;;;;;6.95;2.78;;;16.90;99.90;;;;;;4962716;28;20047;-86
2023/07/17 00:16:28;;;;;;;8.00;2.92;;;16.90;99.90;;;;;;5010838;28;20077;-87
2023/07/17 00:18:54;;;;;;;7.72;3.17;;;16.90;99.90;;;;;;4983237;28;20041;-88
2023/07/17 00:21:23;;;;;;;10.07;3.83;;;16.90;99.90;;;;;;4991966;28;20478;-87
2023/07/17 00:23:49;;;;;;;9.02;2.92;;;16.90;99.90;;;;;;4962478;28;20127;-88
2023/07/17 00:26:14;;;;;;;7.32;2.85;;;16.90;99.90;;;;;;4996527;28;20039;-88
2023/07/17 00:28:46;;;;;;;5.93;3.00;;;16.90;99.90;;;;;;5056805;28;20054;-90
2023/07/17 00:31:21;;;;;;;10.20;3.25;;;17.00;99.90;;;;;;4968092;28;20042;-88
2023/07/17 00:33:47;;;;;;;9.05;3.30;;;16.90;99.90;;;;;;4987644;28;20308;-87
2023/07/17 00:36:14;;;;;;;11.48;3.78;;;17.00;99.90;;;;;;4974000;28;20108;-89
2023/07/17 00:38:40;;;;;;;11.35;3.15;;;16.90;99.90;;;;;;4979827;28;20038;-88
2023/07/17 00:41:06;;;;;;;8.63;3.40;;;16.90;99.90;;;;;;4970439;28;20049;-89
2023/07/17 00:43:33;;;;;;;11.05;4.30;;;16.90;99.90;;;;;;4975247;28;20147;-88
2023/07/17 00:45:58;;;;;;;7.93;3.75;;;16.90;99.90;;;;;;5070479;28;20403;-88
2023/07/17 00:48:25;;;;;;;7.32;3.00;;;16.90;99.90;;;;;;4952791;28;20100;-88
2023/07/17 00:50:51;;;;;;;7.93;3.15;;;17.00;99.90;;;;;;5051300;28;20081;-88
2023/07/17 00:53:18;;;;;;;8.00;3.55;;;16.90;99.90;;;;;;4955298;28;20654;-87
2023/07/17 00:55:45;;;;;;;7.18;2.88;;;17.00;99.90;;;;;;4958151;28;20125;-88
2023/07/17 00:58:11;;;;;;;11.38;3.33;;;16.80;99.90;;;;;;4959312;28;20072;-88
2023/07/17 01:00:37;;;;;;;4.28;2.60;;;16.90;99.90;;;;;;4955710;28;20046;-89
2023/07/17 01:03:03;;;;;;;6.95;3.25;;;16.80;99.90;;;;;;5061810;28;20055;-87
2023/07/17 01:05:31;;;;;;;7.50;2.80;;;16.70;99.90;;;;;;4969926;28;20095;-88
2023/07/17 01:07:57;;;;;;;6.60;2.92;;;16.60;99.90;;;;;;4955107;28;20379;-87
2023/07/17 01:10:23;;;;;;;7.60;2.40;;;16.50;99.90;;;;;;5060265;28;20045;-87
2023/07/17 01:12:49;;;;;;;4.13;2.33;;;16.50;99.90;;;;;;4955846;28;20039;-87
2023/07/17 01:15:15;;;;;;;5.05;2.28;;;17.00;99.90;;;;;;5059446;28;20118;-87
2023/07/17 01:17:41;;;;;;;5.22;2.40;;;15.70;99.90;;;;;;4953130;28;20042;-87
2023/07/17 01:20:10;;;;;;;4.28;2.22;;;15.90;99.90;;;;;;5049616;28;20478;-86
2023/07/17 01:22:55;;;;;;;6.47;2.10;;;16.20;99.90;;;;;;4980044;28;20038;-87
2023/07/17 01:25:25;;;;;;;5.45;2.30;;;16.20;99.90;;;;;;4980450;28;20113;-85
2023/07/17 01:27:51;;;;;;;6.90;2.47;;;16.20;99.90;;;;;;4970563;28;20113;-87
2023/07/17 01:30:19;;;;;;;5.63;2.25;;;16.10;99.90;;;;;;4971454;28;20035;-86
2023/07/17 01:32:47;;;;;;;8.23;2.15;;;16.20;99.90;;;;;;4971652;28;20039;-88
2023/07/17 01:35:14;;;;;;;6.43;2.53;;;16.20;99.90;;;;;;4959785;28;20104;-88
2023/07/17 01:37:43;;;;;;;6.85;2.55;;;16.30;99.90;;;;;;4966479;28;20045;-88
2023/07/17 01:40:10;;;;;;;5.93;2.95;;;16.20;99.90;;;;;;4979465;28;20045;-87
2023/07/17 01:42:39;;;;;;;7.90;2.63;;;16.20;99.90;;;;;;4978300;28;20048;-88
2023/07/17 01:45:06;;;;;;;5.63;2.58;;;16.20;99.90;;;;;;4987746;28;20038;-87
2023/07/17 01:47:31;;;;;;;6.88;2.67;;;16.20;99.90;;;;;;5056228;28;20034;-87
2023/07/17 01:50:14;;;;;;;8.38;3.25;;;16.20;99.90;;;;;;4965344;28;20041;-87
2023/07/17 01:52:40;;;;;;;9.52;2.92;;;16.10;99.90;;;;;;4973816;28;20491;-89
2023/07/17 01:55:07;;;;;;;9.07;3.17;;;16.20;99.90;;;;;;4971782;28;20617;-88
2023/07/17 01:57:55;;;;;;;5.57;2.50;;;16.30;99.90;;;;;;4954117;28;20543;-87
2023/07/17 02:00:22;;;;;;;8.65;3.58;;;16.20;99.90;;;;;;4987108;28;20587;-89
2023/07/17 02:02:48;;;;;;;8.85;3.10;;;16.30;99.90;;;;;;4951751;28;20039;-86
2023/07/17 02:05:14;;;;;;;10.38;2.85;;;16.20;99.90;;;;;;5050575;28;20049;-87
2023/07/17 02:07:40;;;;;;;6.57;3.08;;;16.30;99.90;;;;;;4963844;28;20394;-87
2023/07/17 02:10:07;;;;;;;6.25;2.75;;;16.30;99.90;;;;;;4982713;28;20048;-89
2023/07/17 02:12:33;;;;;;;7.57;3.10;;;16.30;99.90;;;;;;4976118;28;20042;-88
2023/07/17 02:14:59;;;;;;;6.72;3.00;;;16.30;99.90;;;;;;4967888;28;20057;-88
2023/07/17 02:21:11;;;;;;;7.38;2.83;;;16.20;99.90;;;;;;4986436;28;20643;-88
2023/07/17 02:23:37;;;;;;;6.22;2.92;;;16.10;99.90;;;;;;4962019;28;20042;-87
2023/07/17 02:26:03;;;;;;;7.50;2.78;;;16.20;99.90;;;;;;4968693;28;20047;-88
2023/07/17 02:28:29;;;;;;;6.75;3.13;;;16.20;99.90;;;;;;5073344;28;20137;-87
2023/07/17 02:30:55;;;;;;;7.57;2.72;;;16.10;99.90;;;;;;4954211;28;20050;-89
2023/07/17 02:33:21;;;;;;;6.03;2.60;;;16.10;99.90;;;;;;4959018;28;20043;-89
2023/07/17 02:35:47;;;;;;;6.18;2.65;;;16.10;99.90;;;;;;4978532;28;20133;-90
2023/07/17 02:38:14;;;;;;;9.52;3.08;;;16.10;99.90;;;;;;4963452;28;20114;-88
2023/07/17 02:40:40;;;;;;;7.35;2.83;;;15.50;99.90;;;;;;4963003;28;20046;-89
2023/07/17 02:43:07;;;;;;;5.95;2.75;;;16.00;99.90;;;;;;4941562;28;20112;-89
2023/07/17 02:45:33;;;;;;;6.57;2.85;;;16.00;99.90;;;;;;4950595;28;20049;-89
2023/07/17 02:47:59;;;;;;;6.72;3.33;;;16.00;99.90;;;;;;4968092;28;20598;-89
2023/07/17 02:50:25;;;;;;;8.18;3.25;;;16.10;99.90;;;;;;4977493;28;20115;-89
2023/07/17 02:52:51;;;;;;;5.32;3.03;;;16.00;99.90;;;;;;4946566;28;20046;-89
2023/07/17 02:55:16;;;;;;;5.30;2.70;;;15.90;99.90;;;;;;4941904;28;20789;-90
2023/07/17 02:57:42;;;;;;;8.38;3.80;;;15.90;99.90;;;;;;4975220;28;20557;-88
2023/07/17 03:00:09;;;;;;;5.85;2.65;;;15.90;99.90;;;;;;4966745;28;20039;-89
2023/07/17 03:02:37;;;;;;;7.85;3.00;;;15.90;99.90;;;;;;5058254;28;20046;-88
2023/07/17 03:05:08;;;;;;;12.45;3.20;;;15.80;99.90;;;;;;4976114;28;20051;-88
2023/07/17 03:07:36;;;;;;;6.65;2.58;;;15.90;99.90;;;;;;5073987;28;20045;-89
2023/07/17 03:10:02;;;;;;;5.65;2.85;;;15.40;99.90;;;;;;5066406;28;20034;-88
2023/07/17 03:12:28;;;;;;;5.32;2.92;;;15.90;99.90;;;;;;4962018;28;20043;-88
2023/07/17 03:14:55;;;;;;;4.72;2.45;;;15.80;99.90;;;;;;4966737;28;20112;-88
2023/07/17 03:17:20;;;;;;;7.68;3.00;;;15.70;99.90;;;;;;4992321;28;20038;-89
2023/07/17 03:19:50;;;;;;;5.80;2.42;;;15.70;99.90;;;;;;4962276;28;20499;-88
2023/07/17 03:22:17;;;;;;;6.85;2.97;;;15.70;99.90;;;;;;5036298;28;21769;-88
2023/07/17 03:24:44;;;;;;;4.80;2.42;;;15.70;99.90;;;;;;4961797;28;20047;-88
2023/07/17 03:27:10;;;;;;;5.18;2.45;;;15.60;99.90;;;;;;4983545;28;20034;-88
2023/07/17 03:29:36;;;;;;;9.80;2.80;;;15.70;99.90;;;;;;5051937;28;20045;-88
2023/07/17 03:32:02;;;;;;;5.30;2.67;;;15.70;99.90;;;;;;4973188;28;20065;-88
2023/07/17 03:34:27;;;;;;;7.40;2.50;;;15.70;99.90;;;;;;5032363;28;20122;-89
2023/07/17 03:36:56;;;;;;;7.03;2.95;;;15.70;99.90;;;;;;4954911;28;20043;-89
2023/07/17 03:39:22;;;;;;;5.18;2.80;;;15.70;99.90;;;;;;4962095;28;20030;-88
2023/07/17 03:41:48;;;;;;;5.90;2.83;;;15.60;99.90;;;;;;4956145;28;20370;-88
2023/07/17 03:44:13;;;;;;;5.28;2.60;;;15.70;99.90;;;;;;4982548;28;20066;-88
2023/07/17 03:46:40;;;;;;;7.22;2.90;;;15.70;99.90;;;;;;5048566;28;20054;-89
2023/07/17 03:49:06;;;;;;;5.90;2.78;;;15.80;99.90;;;;;;4967738;28;20043;-86
2023/07/17 03:51:32;;;;;;;8.82;2.70;;;15.70;99.90;;;;;;4982401;28;20398;-88
2023/07/17 03:53:58;;;;;;;6.97;3.15;;;15.60;99.90;;;;;;5062443;28;20360;-87
2023/07/17 03:56:23;;;;;;;10.95;3.63;;;15.70;99.90;;;;;;4971422;28;20018;-87
2023/07/17 03:58:51;;;;;;;6.07;2.90;;;15.60;99.90;;;;;;5004144;28;20026;-88
2023/07/17 04:01:17;;;;;;;6.15;2.40;;;15.70;99.90;;;;;;5053985;28;20047;-87
2023/07/17 04:03:43;;;;;;;5.20;2.67;;;15.60;99.90;;;;;;5075260;28;20048;-87
2023/07/17 04:06:09;;;;;;;8.18;2.92;;;15.70;99.90;;;;;;5001232;28;20142;-87
2023/07/17 04:08:35;;;;;;;8.52;2.67;;;15.70;99.90;;;;;;4968520;28;20063;-89
2023/07/17 04:11:01;;;;;;;8.80;3.00;;;15.60;99.90;;;;;;4948100;28;20065;-88
2023/07/17 04:13:26;;;;;;;16.90;3.08;;;15.60;99.90;;;;;;4970743;28;20046;-87
2023/07/17 04:15:53;;;;;;;11.57;2.97;;;15.60;99.90;;;;;;4965077;28;20030;-88
2023/07/17 04:18:18;;;;;;;5.93;3.42;;;15.70;99.90;;;;;;4954226;28;20034;-88
2023/07/17 04:20:44;;;;;;;10.63;2.70;;;14.60;99.90;;;;;;4981994;28;20156;-89
2023/07/17 04:23:12;;;;;;;8.00;2.75;;;15.70;99.90;;;;;;4962044;28;20051;-87
2023/07/17 04:25:41;;;;;;;5.93;2.60;;;15.70;99.90;;;;;;5055367;28;20038;-88
2023/07/17 04:28:06;;;;;;;7.78;3.40;;;15.70;99.90;;;;;;4955927;28;20501;-88
2023/07/17 04:30:36;;;;;;;9.63;3.72;;;15.80;99.90;;;;;;4979129;28;20034;-88
2023/07/17 04:33:04;;;;;;;9.05;2.63;;;15.80;99.90;;;;;;5050387;28;20049;-90
2023/07/17 04:35:36;;;;;;;7.80;2.90;;;15.70;99.90;;;;;;5061004;28;20050;-87
2023/07/17 04:38:01;;;;;;;12.40;3.15;;;15.80;99.90;;;;;;4962804;28;20046;-88
2023/07/17 04:40:31;;;;;;;9.25;3.10;;;15.90;99.90;;;;;;4948862;28;20053;-89
2023/07/17 04:43:03;;;;;;;8.10;2.88;;;15.80;99.90;;;;;;5053988;28;20400;-88
2023/07/17 04:45:29;;;;;;;9.98;3.53;;;15.80;99.90;;;;;;4972865;28;20038;-88
2023/07/17 04:47:55;;;;;;;5.57;2.88;;;16.00;99.90;;;;;;4972011;28;20125;-88
2023/07/17 04:50:26;;;;;;;9.25;3.10;;;15.90;99.90;;;;;;4994958;28;20097;-87
2023/07/17 04:52:52;;;;;;;8.75;3.13;;;16.10;99.90;;;;;;4965783;28;20084;-88
2023/07/17 04:55:22;;;;;;;7.78;3.08;;;16.00;99.90;;;;;;5064096;28;20050;-89
2023/07/17 04:57:48;;;;;;;11.27;2.95;;;16.00;99.90;;;;;;4968418;28;20117;-89
2023/07/17 05:00:15;;;;;;;8.52;2.63;;;16.10;99.90;;;;;;4984425;28;20424;-87
2023/07/17 05:02:42;;;;;;;7.40;2.70;;;16.10;99.90;;;;;;4979154;28;20375;-89
2023/07/17 05:05:09;;;;;;;7.20;2.90;;;16.30;99.90;;;;;;4973935;28;20453;-88
2023/07/17 05:07:35;;;;;;;8.75;3.58;;;16.10;99.90;;;;;;4980073;28;20533;-88
2023/07/17 05:10:03;;;;;;;6.55;2.78;;;16.30;99.90;;;;;;4981329;28;20130;-87
2023/07/17 05:12:28;;;;;;;9.48;3.05;;;16.20;99.90;;;;;;4966937;28;20498;-86
2023/07/17 05:14:54;;;;;;;7.85;3.03;;;16.20;99.90;;;;;;4961238;28;20030;-90
2023/07/17 05:17:20;;;;;;;8.35;3.38;;;16.20;99.90;;;;;;4965174;28;20046;-88
2023/07/17 05:19:46;;;;;;;7.05;2.67;;;16.50;99.90;;;;;;4957730;28;20045;-89
2023/07/17 05:22:11;;;;;;;6.72;3.40;;;16.40;99.90;;;;;;4976706;28;20223;-87
2023/07/17 05:24:37;;;;;;;7.65;3.03;;;16.40;99.90;;;;;;4953601;28;20041;-89
2023/07/17 05:27:04;;;;;;;9.40;3.38;;;16.50;99.90;;;;;;4961029;28;20034;-89
2023/07/17 05:29:30;;;;;;;8.35;3.17;;;16.50;99.90;;;;;;4955965;28;20043;-89
2023/07/17 05:31:56;;;;;;;9.90;3.30;;;16.50;99.90;;;;;;4959850;28;20045;-90
2023/07/17 05:34:22;;;;;;;9.85;3.17;;;16.50;99.90;;;;;;5066755;28;20402;-88
2023/07/17 05:36:48;;;;;;;8.88;3.78;;;16.50;99.90;;;;;;4976209;28;20108;-88
2023/07/17 05:39:14;;;;;;;11.50;3.15;;;16.10;99.90;;;;;;4972106;28;20038;-88
2023/07/17 05:41:40;;;;;;;11.38;3.35;;;16.60;99.90;;;;;;5070219;28;20072;-89
2023/07/17 05:44:08;;;;;;;8.50;3.33;;;16.60;99.90;;;;;;4974276;28;20071;-90
2023/07/17 05:46:34;;;;;;;7.45;2.83;;;16.80;99.90;;;;;;4955960;28;20058;-89
2023/07/17 05:49:00;;;;;;;9.50;3.47;;;16.60;99.90;;;;;;4950933;28;20049;-88
2023/07/17 05:51:26;;;;;;;6.80;2.85;;;16.70;99.90;;;;;;4954520;28;20034;-87
2023/07/17 05:53:51;;;;;;;9.48;3.03;;;16.70;99.90;;;;;;4956640;28;20053;-88
2023/07/17 05:56:18;;;;;;;8.52;3.28;;;16.90;99.90;;;;;;4966529;28;20066;-87
2023/07/17 05:58:44;;;;;;;9.75;2.92;;;16.80;99.90;;;;;;4978640;28;20051;-89
2023/07/17 06:01:10;;;;;;;9.05;3.28;;;17.00;99.90;;;;;;4965655;28;20082;-90
2023/07/17 06:03:36;;;;;;;8.95;3.47;;;17.10;99.90;;;;;;4960520;28;20058;-89
2023/07/17 06:06:03;;;;;;;8.80;3.70;;;17.30;99.90;;;;;;4976112;28;20080;-89
2023/07/17 06:08:28;;;;;;;11.57;4.25;;;17.10;99.90;;;;;;5086203;28;20129;-89
2023/07/17 06:10:54;;;;;;;7.07;3.60;;;17.10;99.90;;;;;;5041436;28;20685;-89
2023/07/17 06:13:20;;;;;;;9.13;3.45;;;17.20;99.90;;;;;;5049386;28;20050;-89
2023/07/17 06:15:46;;;;;;;8.65;3.47;;;17.30;99.90;;;;;;4984081;28;20043;-88
2023/07/17 06:18:12;;;;;;;9.90;3.45;;;17.40;99.90;;;;;;5000348;28;20043;-87
2023/07/17 06:20:39;;;;;;;8.52;3.70;;;17.30;99.90;;;;;;4984207;28;20041;-90
2023/07/17 06:23:05;;;;;;;8.75;3.25;;;17.40;99.90;;;;;;5025514;28;20136;-91
2023/07/17 06:25:30;;;;;;;8.07;3.30;;;17.50;99.90;;;;;;4990720;28;20069;-88
2023/07/17 06:27:56;;;;;;;13.82;4.78;;;17.50;99.90;;;;;;5067282;28;20046;-90
2023/07/17 06:30:22;;;;;;;11.20;4.00;;;17.70;99.90;;;;;;5006001;28;20051;-90
2023/07/17 06:32:48;;;;;;;9.35;3.80;;;17.80;99.90;;;;;;5027890;28;20038;-89
2023/07/17 06:35:14;;;;;;;10.95;4.30;;;17.80;99.90;;;;;;5013630;28;20035;-89
2023/07/17 06:37:40;;;;;;;11.32;4.07;;;18.00;99.90;;;;;;4982935;28;20504;-91
2023/07/17 06:40:07;;;;;;;8.65;3.78;;;18.10;99.90;;;;;;5078184;28;20046;-91
2023/07/17 06:42:36;;;;;;;10.88;3.83;;;18.40;99.90;;;;;;4970074;28;20100;-92
2023/07/17 06:45:02;;;;;;;14.02;4.30;;;18.60;99.90;;;;;;5054544;28;20042;-88
2023/07/17 06:47:29;;;;;;;8.88;4.07;;;18.40;99.90;;;;;;4959662;28;20065;-90
2023/07/17 06:49:55;;;;;;;11.27;4.00;;;18.30;99.90;;;;;;4993081;28;20046;-90
2023/07/17 06:52:21;;;;;;;12.68;4.93;;;18.60;99.90;;;;;;4944632;28;20091;-90
2023/07/17 06:54:46;;;;;;;12.02;4.43;;;18.50;99.90;;;;;;4954036;28;20031;-90
2023/07/17 06:57:12;;;;;;;10.35;4.13;;;18.60;99.90;;;;;;5077943;28;20068;-89
2023/07/17 06:59:38;;;;;;;9.60;3.88;;;18.70;99.90;;;;;;4976205;28;20034;-91
2023/07/17 07:02:04;;;;;;;10.65;4.57;;;18.60;99.90;;;;;;4960202;28;20043;-90
2023/07/17 07:04:30;;;;;;;11.75;4.45;;;19.60;99.90;;;;;;5070775;28;20180;-89
2023/07/17 07:06:56;;;;;;;10.25;4.25;;;18.70;99.90;;;;;;4960402;28;20133;-90
2023/07/17 07:09:23;;;;;;;11.85;4.72;;;18.70;99.90;;;;;;5037542;28;20046;-90
2023/07/17 07:11:50;;;;;;;8.90;4.07;;;18.80;99.90;;;;;;5051688;28;20046;-90
2023/07/17 07:14:16;;;;;;;13.32;4.57;;;18.90;99.90;;;;;;4953789;28;20034;-90
2023/07/17 07:16:42;;;;;;;12.18;4.38;;;18.80;99.90;;;;;;4957023;28;20027;-92
2023/07/17 07:19:08;;;;;;;9.95;4.25;;;18.60;99.90;;;;;;4991316;28;20696;-89
2023/07/17 07:21:34;;;;;;;10.35;4.53;;;18.70;99.90;;;;;;4972305;28;20101;-88
2023/07/17 07:23:59;;;;;;;9.85;4.53;;;18.70;99.90;;;;;;5079509;28;20068;-91
2023/07/17 07:26:25;;;;;;;10.85;4.18;;;19.00;99.90;;;;;;4973927;28;20043;-90
2023/07/17 07:28:52;;;;;;;10.50;4.60;;;19.50;99.90;;;;;;5066516;28;20552;-89
2023/07/17 07:31:17;;;;;;;9.90;3.78;;;19.10;99.90;;;;;;5066058;28;20102;-89
2023/07/17 07:33:43;;;;;;;7.65;4.13;;;18.70;99.90;;;;;;4999504;28;20553;-89
2023/07/17 07:36:12;;;;;;;7.10;3.22;;;18.60;99.90;;;;;;4967432;28;20057;-89
2023/07/17 07:38:38;;;;;;;7.68;3.22;;;18.30;99.90;;;;;;5043395;28;20479;-89
2023/07/17 07:41:03;;;;;;;6.28;2.80;;;18.20;99.90;;;;;;4957611;28;20042;-88
2023/07/17 07:43:29;;;;;;;4.82;2.92;;;17.80;99.90;;;;;;4967257;28;20101;-87
2023/07/17 07:45:55;;;;;;;6.55;2.97;;;17.60;99.90;;;;;;5044805;28;20047;-87
2023/07/17 07:48:21;;;;;;;10.93;3.45;;;17.50;99.90;;;;;;4971871;28;20034;-86
2023/07/17 07:50:47;;;;;;;5.93;3.17;;;17.40;99.90;;;;;;4955888;28;20498;-87
2023/07/17 07:53:12;;;;;;;7.63;3.13;;;17.20;99.90;;;;;;4957731;28;20039;-88
2023/07/17 07:55:38;;;;;;;8.07;2.88;;;17.40;99.90;;;;;;4970951;28;20039;-87
2023/07/17 07:58:04;;;;;;;7.40;3.35;;;17.40;99.90;;;;;;4965654;28;20866;-88
2023/07/17 08:00:30;;;;;;;5.70;3.25;;;17.40;99.90;;;;;;4985826;28;20037;-88
2023/07/17 08:02:56;;;;;;;7.30;3.33;;;17.60;99.90;;;;;;4993060;28;20923;-89
2023/07/17 08:05:23;;;;;;;5.22;3.13;;;17.60;99.90;;;;;;4958664;28;20115;-87
2023/07/17 08:07:50;;;;;;;8.93;3.10;;;17.60;99.90;;;;;;5043798;28;20697;-87
2023/07/17 08:10:16;;;;;;;7.63;3.38;;;17.80;99.90;;;;;;4964513;28;20038;-89
2023/07/17 08:12:41;;;;;;;7.78;3.65;;;18.00;99.90;;;;;;4966602;28;20039;-89
2023/07/17 08:15:08;;;;;;;8.02;3.80;;;18.00;99.90;;;;;;5058013;28;20042;-88
2023/07/17 08:17:37;;;;;;;7.43;3.70;;;18.20;99.90;;;;;;4961665;28;20042;-88
2023/07/17 08:20:04;;;;;;;12.20;4.00;;;18.20;99.90;;;;;;4972154;28;20077;-89
2023/07/17 08:22:29;;;;;;;8.10;4.38;;;18.20;99.90;;;;;;5054452;28;20067;-89
2023/07/17 08:24:55;;;;;;;9.57;4.32;;;18.30;99.90;;;;;;4956502;28;20042;-87
2023/07/17 08:27:21;;;;;;;9.65;4.22;;;18.40;99.90;;;;;;5037068;28;20125;-88
2023/07/17 08:29:47;;;;;;;8.40;4.10;;;18.60;99.90;;;;;;4969256;28;20221;-86
2023/07/17 08:32:13;;;;;;;10.15;4.00;;;19.10;99.90;;;;;;5050309;28;20046;-89
2023/07/17 08:34:39;;;;;;;8.55;3.50;;;19.30;99.90;;;;;;4996234;28;20050;-87
2023/07/17 08:37:05;;;;;;;9.95;3.70;;;19.60;99.90;;;;;;4977498;28;20514;-89
2023/07/17 08:39:30;;;;;;;6.47;3.47;;;19.80;99.90;;;;;;4950758;28;20038;-87
2023/07/17 08:41:56;;;;;;;7.50;3.55;;;19.80;99.90;;;;;;4955503;28;20038;-89
2023/07/17 08:44:22;;;;;;;8.85;3.63;;;19.90;99.90;;;;;;4951263;28;20035;-88
2023/07/17 08:46:50;;;;;;;9.75;4.45;;;20.10;99.90;;;;;;4965774;28;20039;-87
2023/07/17 08:49:22;;;;;;;5.20;3.17;;;20.40;99.90;;;;;;4974618;28;20038;-89
2023/07/17 08:51:49;;;;;;;8.10;3.17;;;20.50;99.90;;;;;;5063534;28;20043;-90
2023/07/17 08:54:16;;;;;;;6.97;3.20;;;20.70;99.90;;;;;;5073151;28;20059;-90
2023/07/17 08:56:43;;;;;;;8.02;3.45;;;20.90;99.90;;;;;;4956943;28;20042;-88
2023/07/17 08:59:10;;;;;;;7.35;3.53;;;21.00;99.90;;;;;;4975906;28;20026;-89
2023/07/17 09:01:36;;;;;;;8.65;3.65;;;21.20;99.90;;;;;;4978552;28;20038;-89
2023/07/17 09:04:06;;;;;;;5.70;3.15;;;21.20;99.90;;;;;;4979292;28;20082;-89
2023/07/17 09:06:32;;;;;;;8.43;3.50;;;21.20;99.90;;;;;;4966490;28;20042;-88
2023/07/17 09:08:58;;;;;;;8.32;3.28;;;21.40;99.90;;;;;;4973431;28;20042;-89
2023/07/17 09:11:24;;;;;;;8.15;3.45;;;21.70;99.90;;;;;;4979432;28;20067;-88
2023/07/17 09:13:50;;;;;;;7.13;3.42;;;21.60;99.90;;;;;;4970284;28;20031;-89
2023/07/17 09:16:22;;;;;;;6.50;3.05;;;21.70;99.90;;;;;;4970198;28;20058;-87
2023/07/17 09:18:51;;;;;;;4.28;2.90;;;21.60;99.90;;;;;;5013301;28;20535;-89
2023/07/17 09:21:20;;;;;;;6.68;3.40;;;21.50;99.90;;;;;;5061247;28;20559;-89
2023/07/17 09:23:48;;;;;;;6.30;2.85;;;21.00;99.90;;;;;;5048993;28;20659;-89
2023/07/17 09:26:15;;;;;;;5.22;2.70;;;20.60;99.90;;;;;;4963260;28;20042;-88
2023/07/17 09:28:50;;;;;;;8.57;2.70;;;20.60;99.90;;;;;;5067769;28;20035;-87
2023/07/17 09:31:25;;;;;;;4.10;2.33;;;20.30;99.90;;;;;;4990563;28;20045;-88
2023/07/17 09:33:56;;;;;;;3.60;2.30;;;20.70;99.90;;;;;;4971565;28;20038;-87
2023/07/17 09:36:22;;;;;;;7.40;2.70;;;21.00;99.90;;;;;;4980120;28;20042;-88
2023/07/17 09:38:57;;;;;;;4.15;2.70;;;20.90;99.90;;;;;;4967140;28;20038;-89
2023/07/17 09:41:25;;;;;;;5.07;2.72;;;21.50;99.90;;;;;;4997548;28;20063;-88
2023/07/17 09:44:05;;;;;;;4.45;2.67;;;21.50;99.90;;;;;;4969346;28;20517;-89
2023/07/17 09:46:33;;;;;;;6.45;2.40;;;22.10;99.90;;;;;;5075142;28;20404;-89
2023/07/17 09:48:59;;;;;;;4.05;2.08;;;22.20;99.90;;;;;;4967569;28;20399;-88
2023/07/17 09:51:25;;;;;;;4.32;2.60;;;21.90;99.90;;;;;;4960021;28;20036;-89
2023/07/17 09:53:52;;;;;;;3.67;2.22;;;21.60;99.90;;;;;;5013878;28;20029;-88
2023/07/17 09:56:20;;;;;;;7.95;2.67;;;21.80;99.90;;;;;;4974142;28;20042;-88
2023/07/17 09:58:46;;;;;;;6.10;2.88;;;21.90;99.90;;;;;;4993675;28;20043;-89
2023/07/17 10:01:17;;;;;;;5.85;2.08;;;22.10;99.90;;;;;;4979157;28;20082;-88
2023/07/17 10:03:48;;;;;;;5.00;2.03;;;22.60;99.90;;;;;;4970339;28;20055;-87
2023/07/17 10:06:17;;;;;;;3.90;2.08;;;22.60;99.90;;;;;;5061041;28;20380;-89
2023/07/17 10:09:02;;;;;;;4.50;2.30;;;22.50;99.90;;;;;;4985509;28;20085;-89
2023/07/17 10:11:29;;;;;;;3.40;2.15;;;22.70;99.90;;;;;;5077102;28;20074;-89
2023/07/17 10:13:56;;;;;;;5.35;1.98;;;22.80;99.90;;;;;;4963474;28;20120;-88
2023/07/17 10:16:24;;;;;;;5.47;2.22;;;23.10;99.90;;;;;;4957909;28;20038;-89
2023/07/17 10:18:54;;;;;;;5.18;1.63;;;23.20;99.90;;;;;;4970494;28;20038;-87
2023/07/17 10:21:23;;;;;;;5.57;2.22;;;23.20;99.90;;;;;;4992679;28;20476;-88
2023/07/17 10:23:50;;;;;;;5.53;2.00;;;23.10;99.90;;;;;;4968782;28;20509;-87
2023/07/17 10:26:20;;;;;;;4.80;2.42;;;23.20;99.90;;;;;;5052848;28;20062;-90
2023/07/17 10:28:53;;;;;;;5.07;2.00;;;23.60;99.90;;;;;;4977340;28;20035;-88
2023/07/17 10:31:21;;;;;;;4.60;1.95;;;23.80;99.90;;;;;;4986613;28;20676;-88
2023/07/17 10:33:52;;;;;;;2.63;1.70;;;24.20;99.90;;;;;;5062853;28;20062;-92
2023/07/17 10:36:19;;;;;;;2.45;1.70;;;24.40;99.90;;;;;;4973360;28;20043;-90
2023/07/17 10:38:51;;;;;;;3.50;2.00;;;24.20;99.90;;;;;;4997639;28;20044;-90
2023/07/17 10:41:16;;;;;;;4.40;2.22;;;23.80;99.90;;;;;;4966546;28;20035;-89
2023/07/17 10:44:03;;;;;;;4.03;1.80;;;23.90;99.90;;;;;;5071402;28;20042;-88
2023/07/17 10:46:31;;;;;;;3.03;1.85;;;23.60;99.90;;;;;;4972935;28;20042;-90
2023/07/17 10:49:08;;;;;;;4.43;2.20;;;23.60;99.90;;;;;;4985854;28;20085;-90
2023/07/17 10:51:36;;;;;;;2.92;1.83;;;23.30;99.90;;;;;;5039533;28;20044;-89
2023/07/17 10:54:02;;;;;;;3.47;2.03;;;24.00;99.90;;;;;;5016534;28;20509;-89
2023/07/17 10:56:31;;;;;;;4.65;2.30;;;24.10;99.90;;;;;;4978697;28;20125;-89
2023/07/17 10:58:57;;;;;;;5.95;2.15;;;24.30;99.90;;;;;;4984439;28;20061;-89
2023/07/17 11:01:23;;;;;;;2.75;1.83;;;24.10;99.90;;;;;;5004931;28;20045;-88
2023/07/17 11:03:49;;;;;;;2.60;1.85;;;24.20;99.90;;;;;;5057537;28;20057;-88
2023/07/17 11:06:16;;;;;;;9.02;2.30;;;24.30;95.10;;;;;;5008665;28;20050;-88
2023/07/17 11:08:52;;;;;;;5.82;2.03;;;24.10;80.50;;;;;;4967723;28;20038;-88
2023/07/17 11:11:18;;;;;;;7.72;3.08;;;24.00;99.90;;;;;;4992869;28;20566;-87
2023/07/17 11:13:48;;;;;;;2.78;1.73;;;24.20;99.90;;;;;;5067115;28;20042;-89
2023/07/17 11:16:14;;;;;;;8.70;2.13;;;24.40;99.90;;;;;;4993603;28;20034;-88
2023/07/17 11:18:45;;;;;;;3.88;2.28;;;24.10;99.90;;;;;;5004461;28;20036;-91
2023/07/17 11:21:11;;;;;;;4.95;2.25;;;23.90;99.90;;;;;;4997232;28;20050;-90
2023/07/17 11:23:47;;;;;;;5.45;2.30;;;23.80;99.90;;;;;;5048994;28;20775;-91
2023/07/17 11:26:14;;;;;;;5.10;2.08;;;24.20;92.60;;;;;;5058408;28;20051;-89
2023/07/17 11:28:40;;;;;;;3.47;2.00;;;24.40;61.10;;;;;;4969804;28;20128;-88
2023/07/17 11:31:17;;;;;;;2.50;1.85;;;24.60;93.30;;;;;;4978026;28;20121;-90
2023/07/17 11:33:51;;;;;;;3.28;2.13;;;24.90;54.40;;;;;;4975145;28;20039;-92
2023/07/17 11:36:17;;;;;;;4.07;2.35;;;24.80;59.60;;;;;;4974581;28;20035;-90
2023/07/17 11:38:42;;;;;;;4.07;2.20;;;24.80;78.20;;;;;;4960330;28;20046;-89
2023/07/17 11:41:11;;;;;;;5.05;2.08;;;25.10;72.70;;;;;;4956771;28;20043;-89
2023/07/17 11:43:37;;;;;;;4.47;1.90;;;25.50;65.20;;;;;;4955864;28;20121;-88
2023/07/17 11:46:08;;;;;;;3.45;1.90;;;25.70;69.40;;;;;;4974726;28;20148;-90
2023/07/17 11:48:37;;;;;;;3.13;1.90;;;25.80;52.10;;;;;;4957525;28;20038;-89
2023/07/17 11:51:05;;;;;;;4.13;2.33;;;24.70;58.40;;;;;;5057425;28;20126;-88
2023/07/17 11:53:33;;;;;;;4.35;2.05;;;24.30;86.30;;;;;;4938333;28;20100;-90
2023/07/17 11:56:01;;;;;;;4.72;2.30;;;23.70;78.30;;;;;;5055448;28;20399;-89
2023/07/17 11:58:29;;;;;;;3.25;1.80;;;23.20;85.20;;;;;;5058578;28;20038;-90
2023/07/17 12:00:56;;;;;;;6.60;2.67;;;23.30;90.40;;;;;;5064911;28;20042;-89
2023/07/17 12:03:22;;;;;;;3.63;2.10;;;23.20;54.40;;;;;;4989573;28;20077;-89
2023/07/17 12:05:49;;;;;;;3.95;1.60;;;23.80;65.60;;;;;;4973065;28;20051;-88
2023/07/17 12:08:15;;;;;;;3.83;1.95;;;24.50;52.00;;;;;;4954146;28;20050;-89
2023/07/17 12:10:41;;;;;;;3.15;1.85;;;24.40;9.00;;;;;;5064320;28;20510;-89
2023/07/17 12:13:08;;;;;;;4.35;1.88;;;24.70;26.60;;;;;;4973452;28;20035;-89
2023/07/17 12:15:35;;;;;;;4.03;1.90;;;24.70;17.90;;;;;;4956353;28;20117;-89
2023/07/17 12:18:01;;;;;;;5.13;2.00;;;25.10;11.50;;;;;;4978169;28;20039;-89
2023/07/17 12:20:29;;;;;;;4.72;2.05;;;24.70;18.10;;;;;;4975717;28;20087;-90
2023/07/17 12:22:57;;;;;;;2.88;1.88;;;24.40;24.40;;;;;;5055158;28;20043;-91
2023/07/17 12:25:23;;;;;;;3.55;1.73;;;24.30;22.20;;;;;;5037304;28;20042;-89
2023/07/17 12:27:49;;;;;;;4.47;1.98;;;24.00;34.90;;;;;;4973005;28;20042;-90
2023/07/17 12:30:16;;;;;;;4.53;1.73;;;23.20;50.00;;;;;;4980149;28;20040;-89
2023/07/17 12:32:42;;;;;;;5.10;2.05;;;22.90;59.90;;;;;;5027593;28;20101;-91
2023/07/17 12:35:10;;;;;;;5.68;1.85;;;22.60;81.90;;;;;;4979194;28;20044;-91
2023/07/17 12:37:36;;;;;;;3.78;2.08;;;23.20;97.10;;;;;;4975969;28;20042;-89
2023/07/17 12:40:02;;;;;;;4.65;1.90;;;22.80;94.80;;;;;;4957011;28;20509;-90
2023/07/17 12:42:28;;;;;;;4.47;1.80;;;22.80;1.00;;;;;;5065648;28;20077;-89
2023/07/17 12:44:53;;;;;;;2.75;1.77;;;23.20;1.00;;;;;;4952785;28;20467;-91
2023/07/17 12:47:19;;;;;;;4.97;2.47;;;23.70;99.90;;;;;;4960665;28;20046;-90
2023/07/17 12:49:45;;;;;;;3.83;1.77;;;23.40;1.00;;;;;;4992988;28;20700;-89